sensor_id;sensor_type;location;lat;lon;timestamp;P1;durP1;ratioP1;P2;durP2;ratioP2
16579;SDS011;8402;51.466;6.806;2023-10-09T00:01:40;31.77;;;13.93;;
16579;SDS011;8402;51.466;6.806;2023-10-09T00:04:10;30.20;;;13.83;;
16579;SDS011;8402;51.466;6.806;2023-10-09T00:06:45;33.83;;;14.37;;
16579;SDS011;8402;51.466;6.806;2023-10-09T00:09:16;38.97;;;14.37;;
16579;SDS011;8402;51.466;6.806;2023-10-09T00:11:59;32.30;;;13.90;;
16579;SDS011;8402;51.466;6.806;2023-10-09T00:14:36;37.17;;;14.23;;
16579;SDS011;8402;51.466;6.806;2023-10-09T00:17:07;36.77;;;15.20;;
16579;SDS011;8402;51.466;6.806;2023-10-09T00:19:48;44.57;;;13.93;;
16579;SDS011;8402;51.466;6.806;2023-10-09T00:22:29;30.40;;;14.13;;
16579;SDS011;8402;51.466;6.806;2023-10-09T00:25:05;29.33;;;13.93;;
16579;SDS011;8402;51.466;6.806;2023-10-09T00:27:48;35.13;;;14.80;;
16579;SDS011;8402;51.466;6.806;2023-10-09T00:30:18;29.37;;;13.93;;
16579;SDS011;8402;51.466;6.806;2023-10-09T00:32:49;35.00;;;14.50;;
16579;SDS011;8402;51.466;6.806;2023-10-09T00:35:26;36.67;;;15.30;;
16579;SDS011;8402;51.466;6.806;2023-10-09T00:38:24;34.83;;;14.40;;
16579;SDS011;8402;51.466;6.806;2023-10-09T00:41:00;34.60;;;14.47;;
16579;SDS011;8402;51.466;6.806;2023-10-09T00:43:37;28.03;;;13.13;;
16579;SDS011;8402;51.466;6.806;2023-10-09T00:46:09;29.83;;;14.53;;
16579;SDS011;8402;51.466;6.806;2023-10-09T00:48:52;27.23;;;13.27;;
16579;SDS011;8402;51.466;6.806;2023-10-09T00:51:28;29.47;;;13.37;;
16579;SDS011;8402;51.466;6.806;2023-10-09T00:54:05;27.97;;;13.20;;
16579;SDS011;8402;51.466;6.806;2023-10-09T00:56:42;24.57;;;12.77;;
16579;SDS011;8402;51.466;6.806;2023-10-09T00:59:24;32.63;;;13.07;;
16579;SDS011;8402;51.466;6.806;2023-10-09T01:01:55;29.27;;;13.53;;
16579;SDS011;8402;51.466;6.806;2023-10-09T01:04:30;30.23;;;12.73;;
16579;SDS011;8402;51.466;6.806;2023-10-09T01:07:04;32.23;;;12.97;;
16579;SDS011;8402;51.466;6.806;2023-10-09T01:09:42;36.77;;;14.80;;
16579;SDS011;8402;51.466;6.806;2023-10-09T01:12:12;33.00;;;13.73;;
16579;SDS011;8402;51.466;6.806;2023-10-09T01:14:47;25.67;;;12.67;;
16579;SDS011;8402;51.466;6.806;2023-10-09T01:17:22;28.07;;;13.27;;
16579;SDS011;8402;51.466;6.806;2023-10-09T01:20:04;31.63;;;13.40;;
16579;SDS011;8402;51.466;6.806;2023-10-09T01:22:41;28.47;;;13.30;;
16579;SDS011;8402;51.466;6.806;2023-10-09T01:25:14;28.70;;;12.27;;
16579;SDS011;8402;51.466;6.806;2023-10-09T01:27:46;26.93;;;12.07;;
16579;SDS011;8402;51.466;6.806;2023-10-09T01:30:17;23.10;;;12.07;;
16579;SDS011;8402;51.466;6.806;2023-10-09T01:32:47;25.43;;;12.87;;
16579;SDS011;8402;51.466;6.806;2023-10-09T01:35:18;26.60;;;12.70;;
16579;SDS011;8402;51.466;6.806;2023-10-09T01:37:49;24.90;;;12.37;;
16579;SDS011;8402;51.466;6.806;2023-10-09T01:40:23;25.83;;;11.43;;
16579;SDS011;8402;51.466;6.806;2023-10-09T01:43:03;32.87;;;12.47;;
16579;SDS011;8402;51.466;6.806;2023-10-09T01:45:36;24.13;;;11.47;;
16579;SDS011;8402;51.466;6.806;2023-10-09T01:48:13;27.67;;;12.43;;
16579;SDS011;8402;51.466;6.806;2023-10-09T01:50:50;22.20;;;11.20;;
16579;SDS011;8402;51.466;6.806;2023-10-09T01:53:20;25.73;;;11.53;;
16579;SDS011;8402;51.466;6.806;2023-10-09T01:56:01;25.10;;;11.30;;
16579;SDS011;8402;51.466;6.806;2023-10-09T01:58:42;24.60;;;11.40;;
16579;SDS011;8402;51.466;6.806;2023-10-09T02:01:13;29.00;;;11.67;;
16579;SDS011;8402;51.466;6.806;2023-10-09T02:03:44;22.10;;;10.67;;
16579;SDS011;8402;51.466;6.806;2023-10-09T02:06:18;26.87;;;11.50;;
16579;SDS011;8402;51.466;6.806;2023-10-09T02:08:58;24.93;;;10.97;;
16579;SDS011;8402;51.466;6.806;2023-10-09T02:11:35;24.17;;;11.70;;
16579;SDS011;8402;51.466;6.806;2023-10-09T02:14:08;22.90;;;11.17;;
16579;SDS011;8402;51.466;6.806;2023-10-09T02:16:46;23.37;;;11.00;;
16579;SDS011;8402;51.466;6.806;2023-10-09T02:19:29;22.40;;;10.10;;
16579;SDS011;8402;51.466;6.806;2023-10-09T02:22:01;24.93;;;11.27;;
16579;SDS011;8402;51.466;6.806;2023-10-09T02:24:39;22.20;;;11.10;;
16579;SDS011;8402;51.466;6.806;2023-10-09T02:27:27;23.33;;;11.10;;
16579;SDS011;8402;51.466;6.806;2023-10-09T02:30:12;21.40;;;11.07;;
16579;SDS011;8402;51.466;6.806;2023-10-09T02:32:46;24.77;;;10.23;;
16579;SDS011;8402;51.466;6.806;2023-10-09T02:35:20;24.13;;;11.30;;
16579;SDS011;8402;51.466;6.806;2023-10-09T02:38:05;21.07;;;9.83;;
16579;SDS011;8402;51.466;6.806;2023-10-09T02:40:41;23.97;;;10.37;;
16579;SDS011;8402;51.466;6.806;2023-10-09T02:43:34;23.83;;;10.43;;
16579;SDS011;8402;51.466;6.806;2023-10-09T02:46:11;19.50;;;9.80;;
16579;SDS011;8402;51.466;6.806;2023-10-09T02:48:45;19.53;;;9.80;;
16579;SDS011;8402;51.466;6.806;2023-10-09T02:51:18;21.67;;;10.13;;
16579;SDS011;8402;51.466;6.806;2023-10-09T02:54:08;22.87;;;10.90;;
16579;SDS011;8402;51.466;6.806;2023-10-09T02:56:54;19.77;;;10.60;;
16579;SDS011;8402;51.466;6.806;2023-10-09T02:59:36;22.43;;;10.63;;
16579;SDS011;8402;51.466;6.806;2023-10-09T03:02:11;17.70;;;9.60;;
16579;SDS011;8402;51.466;6.806;2023-10-09T03:04:41;20.60;;;10.30;;
16579;SDS011;8402;51.466;6.806;2023-10-09T03:07:12;22.93;;;10.13;;
16579;SDS011;8402;51.466;6.806;2023-10-09T03:09:42;18.53;;;9.73;;
16579;SDS011;8402;51.466;6.806;2023-10-09T03:12:11;21.47;;;10.37;;
16579;SDS011;8402;51.466;6.806;2023-10-09T03:14:48;17.27;;;9.47;;
16579;SDS011;8402;51.466;6.806;2023-10-09T03:17:18;18.03;;;9.53;;
16579;SDS011;8402;51.466;6.806;2023-10-09T03:19:47;20.80;;;10.30;;
16579;SDS011;8402;51.466;6.806;2023-10-09T03:22:17;22.77;;;10.40;;
16579;SDS011;8402;51.466;6.806;2023-10-09T03:24:48;21.50;;;10.80;;
16579;SDS011;8402;51.466;6.806;2023-10-09T03:27:19;25.10;;;10.83;;
16579;SDS011;8402;51.466;6.806;2023-10-09T03:29:52;19.23;;;9.97;;
16579;SDS011;8402;51.466;6.806;2023-10-09T03:32:22;19.63;;;10.57;;
16579;SDS011;8402;51.466;6.806;2023-10-09T03:34:55;18.03;;;10.33;;
16579;SDS011;8402;51.466;6.806;2023-10-09T03:37:26;20.67;;;9.83;;
16579;SDS011;8402;51.466;6.806;2023-10-09T03:40:01;19.63;;;9.20;;
16579;SDS011;8402;51.466;6.806;2023-10-09T03:42:34;19.03;;;10.20;;
16579;SDS011;8402;51.466;6.806;2023-10-09T03:45:11;24.47;;;10.37;;
16579;SDS011;8402;51.466;6.806;2023-10-09T03:47:51;23.70;;;10.23;;
16579;SDS011;8402;51.466;6.806;2023-10-09T03:50:28;22.30;;;10.07;;
16579;SDS011;8402;51.466;6.806;2023-10-09T03:53:03;16.73;;;9.13;;
16579;SDS011;8402;51.466;6.806;2023-10-09T03:55:39;21.17;;;10.10;;
16579;SDS011;8402;51.466;6.806;2023-10-09T03:58:09;19.17;;;9.67;;
16579;SDS011;8402;51.466;6.806;2023-10-09T04:00:44;20.90;;;9.77;;
16579;SDS011;8402;51.466;6.806;2023-10-09T04:03:16;19.77;;;9.00;;
16579;SDS011;8402;51.466;6.806;2023-10-09T04:05:47;21.60;;;9.83;;
16579;SDS011;8402;51.466;6.806;2023-10-09T04:08:20;20.97;;;9.80;;
16579;SDS011;8402;51.466;6.806;2023-10-09T04:10:55;22.70;;;9.70;;
16579;SDS011;8402;51.466;6.806;2023-10-09T04:13:31;19.83;;;9.27;;
16579;SDS011;8402;51.466;6.806;2023-10-09T04:16:09;21.07;;;9.13;;
16579;SDS011;8402;51.466;6.806;2023-10-09T04:18:55;17.17;;;9.37;;
16579;SDS011;8402;51.466;6.806;2023-10-09T04:21:26;16.30;;;8.90;;
16579;SDS011;8402;51.466;6.806;2023-10-09T04:24:01;20.73;;;9.63;;
16579;SDS011;8402;51.466;6.806;2023-10-09T04:26:44;18.87;;;9.43;;
16579;SDS011;8402;51.466;6.806;2023-10-09T04:29:14;18.57;;;9.20;;
16579;SDS011;8402;51.466;6.806;2023-10-09T04:31:53;19.13;;;8.87;;
16579;SDS011;8402;51.466;6.806;2023-10-09T04:34:23;20.53;;;9.50;;
16579;SDS011;8402;51.466;6.806;2023-10-09T04:36:55;18.63;;;9.47;;
16579;SDS011;8402;51.466;6.806;2023-10-09T04:39:46;22.17;;;9.20;;
16579;SDS011;8402;51.466;6.806;2023-10-09T04:42:27;20.13;;;9.63;;
16579;SDS011;8402;51.466;6.806;2023-10-09T04:45:04;20.67;;;9.33;;
16579;SDS011;8402;51.466;6.806;2023-10-09T04:48:02;17.73;;;8.67;;
16579;SDS011;8402;51.466;6.806;2023-10-09T04:50:36;22.77;;;9.33;;
16579;SDS011;8402;51.466;6.806;2023-10-09T04:53:25;18.10;;;8.83;;
16579;SDS011;8402;51.466;6.806;2023-10-09T04:55:55;18.30;;;8.83;;
16579;SDS011;8402;51.466;6.806;2023-10-09T04:58:24;20.33;;;9.37;;
16579;SDS011;8402;51.466;6.806;2023-10-09T05:00:58;20.23;;;9.57;;
16579;SDS011;8402;51.466;6.806;2023-10-09T05:03:42;18.30;;;8.83;;
16579;SDS011;8402;51.466;6.806;2023-10-09T05:06:19;17.10;;;8.80;;
16579;SDS011;8402;51.466;6.806;2023-10-09T05:09:13;20.40;;;9.33;;
16579;SDS011;8402;51.466;6.806;2023-10-09T05:11:47;16.40;;;8.60;;
16579;SDS011;8402;51.466;6.806;2023-10-09T05:14:20;19.50;;;9.17;;
16579;SDS011;8402;51.466;6.806;2023-10-09T05:17:13;18.37;;;9.13;;
16579;SDS011;8402;51.466;6.806;2023-10-09T05:19:46;24.53;;;9.20;;
16579;SDS011;8402;51.466;6.806;2023-10-09T05:22:45;18.87;;;8.67;;
16579;SDS011;8402;51.466;6.806;2023-10-09T05:25:24;23.03;;;9.70;;
16579;SDS011;8402;51.466;6.806;2023-10-09T05:28:07;18.63;;;8.87;;
16579;SDS011;8402;51.466;6.806;2023-10-09T05:30:49;16.00;;;9.57;;
16579;SDS011;8402;51.466;6.806;2023-10-09T05:33:29;21.93;;;9.93;;
16579;SDS011;8402;51.466;6.806;2023-10-09T05:36:04;21.37;;;9.57;;
16579;SDS011;8402;51.466;6.806;2023-10-09T05:38:58;23.63;;;9.97;;
16579;SDS011;8402;51.466;6.806;2023-10-09T05:41:26;22.00;;;10.00;;
16579;SDS011;8402;51.466;6.806;2023-10-09T05:44:15;19.50;;;10.07;;
16579;SDS011;8402;51.466;6.806;2023-10-09T05:46:57;22.33;;;10.53;;
16579;SDS011;8402;51.466;6.806;2023-10-09T05:49:39;21.40;;;9.63;;
16579;SDS011;8402;51.466;6.806;2023-10-09T05:52:24;19.20;;;9.87;;
16579;SDS011;8402;51.466;6.806;2023-10-09T05:54:59;20.37;;;9.77;;
16579;SDS011;8402;51.466;6.806;2023-10-09T05:57:50;19.90;;;10.00;;
16579;SDS011;8402;51.466;6.806;2023-10-09T06:00:32;19.83;;;9.77;;
16579;SDS011;8402;51.466;6.806;2023-10-09T06:03:14;22.00;;;10.63;;
16579;SDS011;8402;51.466;6.806;2023-10-09T06:06:14;18.03;;;9.33;;
16579;SDS011;8402;51.466;6.806;2023-10-09T06:09:03;21.73;;;9.83;;
16579;SDS011;8402;51.466;6.806;2023-10-09T06:11:52;20.73;;;9.63;;
16579;SDS011;8402;51.466;6.806;2023-10-09T06:14:44;19.60;;;10.30;;
16579;SDS011;8402;51.466;6.806;2023-10-09T06:17:48;23.80;;;10.17;;
16579;SDS011;8402;51.466;6.806;2023-10-09T06:20:17;21.37;;;10.17;;
16579;SDS011;8402;51.466;6.806;2023-10-09T06:23:00;23.00;;;9.77;;
16579;SDS011;8402;51.466;6.806;2023-10-09T06:25:45;20.70;;;9.97;;
16579;SDS011;8402;51.466;6.806;2023-10-09T06:28:29;21.90;;;9.70;;
16579;SDS011;8402;51.466;6.806;2023-10-09T06:31:02;22.40;;;10.40;;
16579;SDS011;8402;51.466;6.806;2023-10-09T06:33:54;19.50;;;9.83;;
16579;SDS011;8402;51.466;6.806;2023-10-09T06:36:42;20.33;;;9.40;;
16579;SDS011;8402;51.466;6.806;2023-10-09T06:39:20;20.97;;;10.13;;
16579;SDS011;8402;51.466;6.806;2023-10-09T06:42:16;17.37;;;9.87;;
16579;SDS011;8402;51.466;6.806;2023-10-09T06:45:00;19.30;;;9.30;;
16579;SDS011;8402;51.466;6.806;2023-10-09T06:47:31;17.40;;;9.57;;
16579;SDS011;8402;51.466;6.806;2023-10-09T06:50:08;21.03;;;10.13;;
16579;SDS011;8402;51.466;6.806;2023-10-09T06:52:51;21.80;;;10.27;;
16579;SDS011;8402;51.466;6.806;2023-10-09T06:55:52;17.20;;;9.67;;
16579;SDS011;8402;51.466;6.806;2023-10-09T06:58:30;19.00;;;10.27;;
16579;SDS011;8402;51.466;6.806;2023-10-09T07:01:09;19.57;;;10.07;;
16579;SDS011;8402;51.466;6.806;2023-10-09T07:03:54;21.17;;;10.37;;
16579;SDS011;8402;51.466;6.806;2023-10-09T07:06:26;22.47;;;9.97;;
16579;SDS011;8402;51.466;6.806;2023-10-09T07:09:09;22.47;;;10.33;;
16579;SDS011;8402;51.466;6.806;2023-10-09T07:11:54;19.70;;;10.50;;
16579;SDS011;8402;51.466;6.806;2023-10-09T07:14:29;21.90;;;9.67;;
16579;SDS011;8402;51.466;6.806;2023-10-09T07:17:21;21.20;;;10.50;;
16579;SDS011;8402;51.466;6.806;2023-10-09T07:19:50;23.37;;;10.57;;
16579;SDS011;8402;51.466;6.806;2023-10-09T07:22:35;24.20;;;11.57;;
16579;SDS011;8402;51.466;6.806;2023-10-09T07:25:18;22.73;;;10.70;;
16579;SDS011;8402;51.466;6.806;2023-10-09T07:28:01;17.67;;;9.93;;
16579;SDS011;8402;51.466;6.806;2023-10-09T07:30:47;19.00;;;10.37;;
16579;SDS011;8402;51.466;6.806;2023-10-09T07:33:24;22.40;;;9.73;;
16579;SDS011;8402;51.466;6.806;2023-10-09T07:36:18;22.70;;;10.00;;
16579;SDS011;8402;51.466;6.806;2023-10-09T07:39:02;16.10;;;9.43;;
16579;SDS011;8402;51.466;6.806;2023-10-09T07:41:40;19.13;;;10.00;;
16579;SDS011;8402;51.466;6.806;2023-10-09T07:44:23;19.57;;;10.17;;
16579;SDS011;8402;51.466;6.806;2023-10-09T07:47:12;20.60;;;10.77;;
16579;SDS011;8402;51.466;6.806;2023-10-09T07:49:46;20.40;;;10.57;;
16579;SDS011;8402;51.466;6.806;2023-10-09T07:52:27;23.07;;;10.80;;
16579;SDS011;8402;51.466;6.806;2023-10-09T07:54:56;22.63;;;10.80;;
16579;SDS011;8402;51.466;6.806;2023-10-09T07:57:41;23.47;;;10.90;;
16579;SDS011;8402;51.466;6.806;2023-10-09T08:00:18;27.47;;;10.47;;
16579;SDS011;8402;51.466;6.806;2023-10-09T08:03:03;23.90;;;10.23;;
16579;SDS011;8402;51.466;6.806;2023-10-09T08:05:51;25.30;;;11.07;;
16579;SDS011;8402;51.466;6.806;2023-10-09T08:08:33;27.67;;;10.60;;
16579;SDS011;8402;51.466;6.806;2023-10-09T08:11:29;25.07;;;11.10;;
16579;SDS011;8402;51.466;6.806;2023-10-09T08:14:13;22.67;;;10.97;;
16579;SDS011;8402;51.466;6.806;2023-10-09T08:17:09;18.53;;;10.37;;
16579;SDS011;8402;51.466;6.806;2023-10-09T08:19:48;25.77;;;10.90;;
16579;SDS011;8402;51.466;6.806;2023-10-09T08:22:38;20.43;;;10.63;;
16579;SDS011;8402;51.466;6.806;2023-10-09T08:25:10;21.43;;;10.87;;
16579;SDS011;8402;51.466;6.806;2023-10-09T08:27:56;27.30;;;10.93;;
16579;SDS011;8402;51.466;6.806;2023-10-09T08:30:47;24.53;;;11.27;;
16579;SDS011;8402;51.466;6.806;2023-10-09T08:33:30;24.40;;;10.67;;
16579;SDS011;8402;51.466;6.806;2023-10-09T08:36:17;25.20;;;11.03;;
16579;SDS011;8402;51.466;6.806;2023-10-09T08:38:49;26.30;;;12.47;;
16579;SDS011;8402;51.466;6.806;2023-10-09T08:41:24;23.00;;;10.90;;
16579;SDS011;8402;51.466;6.806;2023-10-09T08:43:57;23.33;;;11.47;;
16579;SDS011;8402;51.466;6.806;2023-10-09T08:46:27;24.33;;;11.30;;
16579;SDS011;8402;51.466;6.806;2023-10-09T08:48:58;22.63;;;11.30;;
16579;SDS011;8402;51.466;6.806;2023-10-09T08:51:34;19.03;;;10.47;;
16579;SDS011;8402;51.466;6.806;2023-10-09T08:54:04;22.80;;;11.50;;
16579;SDS011;8402;51.466;6.806;2023-10-09T08:56:39;18.83;;;10.60;;
16579;SDS011;8402;51.466;6.806;2023-10-09T08:59:17;20.57;;;10.57;;
16579;SDS011;8402;51.466;6.806;2023-10-09T09:01:47;21.23;;;10.07;;
16579;SDS011;8402;51.466;6.806;2023-10-09T09:07:29;21.75;;;10.63;;
16579;SDS011;8402;51.466;6.806;2023-10-09T09:10:01;20.20;;;10.30;;
16579;SDS011;8402;51.466;6.806;2023-10-09T09:12:44;25.23;;;11.83;;
16579;SDS011;8402;51.466;6.806;2023-10-09T09:15:20;28.50;;;11.90;;
16579;SDS011;8402;51.466;6.806;2023-10-09T09:17:53;31.02;;;11.98;;
16579;SDS011;8402;51.466;6.806;2023-10-09T09:20:33;25.77;;;11.75;;
16579;SDS011;8402;51.466;6.806;2023-10-09T09:23:11;28.55;;;12.10;;
16579;SDS011;8402;51.466;6.806;2023-10-09T09:25:42;37.85;;;12.23;;
16579;SDS011;8402;51.466;6.806;2023-10-09T09:28:15;41.63;;;13.27;;
16579;SDS011;8402;51.466;6.806;2023-10-09T09:30:49;27.23;;;11.95;;
16579;SDS011;8402;51.466;6.806;2023-10-09T09:33:21;27.75;;;12.88;;
16579;SDS011;8402;51.466;6.806;2023-10-09T09:36:05;27.27;;;13.10;;
16579;SDS011;8402;51.466;6.806;2023-10-09T09:38:40;33.10;;;12.48;;
16579;SDS011;8402;51.466;6.806;2023-10-09T09:41:15;27.75;;;11.55;;
16579;SDS011;8402;51.466;6.806;2023-10-09T09:43:51;22.80;;;10.90;;
16579;SDS011;8402;51.466;6.806;2023-10-09T09:46:27;24.52;;;11.40;;
16579;SDS011;8402;51.466;6.806;2023-10-09T09:49:03;19.58;;;10.13;;
16579;SDS011;8402;51.466;6.806;2023-10-09T09:51:43;23.20;;;11.02;;
16579;SDS011;8402;51.466;6.806;2023-10-09T09:54:16;20.52;;;10.18;;
16579;SDS011;8402;51.466;6.806;2023-10-09T09:56:53;17.65;;;10.43;;
16579;SDS011;8402;51.466;6.806;2023-10-09T09:59:28;18.45;;;9.70;;
16579;SDS011;8402;51.466;6.806;2023-10-09T10:02:02;19.83;;;10.57;;
16579;SDS011;8402;51.466;6.806;2023-10-09T10:04:36;22.60;;;10.38;;
16579;SDS011;8402;51.466;6.806;2023-10-09T10:07:09;17.30;;;9.38;;
16579;SDS011;8402;51.466;6.806;2023-10-09T10:09:45;17.95;;;9.48;;
16579;SDS011;8402;51.466;6.806;2023-10-09T10:18:30;18.35;;;9.65;;
16579;SDS011;8402;51.466;6.806;2023-10-09T10:21:11;20.23;;;9.75;;
16579;SDS011;8402;51.466;6.806;2023-10-09T10:23:44;20.55;;;10.73;;
16579;SDS011;8402;51.466;6.806;2023-10-09T10:26:21;19.70;;;10.02;;
16579;SDS011;8402;51.466;6.806;2023-10-09T10:31:53;19.73;;;9.73;;
16579;SDS011;8402;51.466;6.806;2023-10-09T10:34:51;21.30;;;10.63;;
16579;SDS011;8402;51.466;6.806;2023-10-09T10:37:35;17.95;;;9.90;;
16579;SDS011;8402;51.466;6.806;2023-10-09T10:40:11;16.45;;;9.68;;
16579;SDS011;8402;51.466;6.806;2023-10-09T10:43:05;18.48;;;10.10;;
16579;SDS011;8402;51.466;6.806;2023-10-09T10:45:40;20.33;;;10.48;;
16579;SDS011;8402;51.466;6.806;2023-10-09T10:48:12;18.63;;;10.30;;
16579;SDS011;8402;51.466;6.806;2023-10-09T10:50:55;17.13;;;9.77;;
16579;SDS011;8402;51.466;6.806;2023-10-09T10:53:27;20.35;;;10.70;;
16579;SDS011;8402;51.466;6.806;2023-10-09T10:56:02;17.40;;;9.45;;
16579;SDS011;8402;51.466;6.806;2023-10-09T10:58:53;18.75;;;10.52;;
16579;SDS011;8402;51.466;6.806;2023-10-09T11:01:38;21.73;;;11.13;;
16579;SDS011;8402;51.466;6.806;2023-10-09T11:04:25;22.08;;;10.50;;
16579;SDS011;8402;51.466;6.806;2023-10-09T11:07:08;17.08;;;9.50;;
16579;SDS011;8402;51.466;6.806;2023-10-09T11:09:42;25.20;;;10.52;;
16579;SDS011;8402;51.466;6.806;2023-10-09T11:12:26;22.58;;;10.20;;
16579;SDS011;8402;51.466;6.806;2023-10-09T11:15:08;20.65;;;10.50;;
16579;SDS011;8402;51.466;6.806;2023-10-09T11:17:59;20.38;;;10.43;;
16579;SDS011;8402;51.466;6.806;2023-10-09T11:20:31;19.08;;;9.93;;
16579;SDS011;8402;51.466;6.806;2023-10-09T11:23:04;23.88;;;10.32;;
16579;SDS011;8402;51.466;6.806;2023-10-09T11:25:45;18.52;;;9.70;;
16579;SDS011;8402;51.466;6.806;2023-10-09T11:28:20;19.80;;;9.82;;
16579;SDS011;8402;51.466;6.806;2023-10-09T11:31:12;21.00;;;10.40;;
16579;SDS011;8402;51.466;6.806;2023-10-09T11:33:46;18.40;;;10.48;;
16579;SDS011;8402;51.466;6.806;2023-10-09T11:36:18;16.52;;;10.43;;
16579;SDS011;8402;51.466;6.806;2023-10-09T11:38:48;18.90;;;9.68;;
16579;SDS011;8402;51.466;6.806;2023-10-09T11:41:19;19.90;;;10.75;;
16579;SDS011;8402;51.466;6.806;2023-10-09T11:43:51;21.55;;;11.48;;
16579;SDS011;8402;51.466;6.806;2023-10-09T11:46:22;22.23;;;11.50;;
16579;SDS011;8402;51.466;6.806;2023-10-09T11:49:05;22.90;;;11.73;;
16579;SDS011;8402;51.466;6.806;2023-10-09T11:51:53;20.05;;;11.38;;
16579;SDS011;8402;51.466;6.806;2023-10-09T11:54:47;22.58;;;11.93;;
16579;SDS011;8402;51.466;6.806;2023-10-09T11:57:16;18.70;;;10.70;;
16579;SDS011;8402;51.466;6.806;2023-10-09T11:59:55;23.73;;;11.00;;
16579;SDS011;8402;51.466;6.806;2023-10-09T12:02:28;20.33;;;11.38;;
16579;SDS011;8402;51.466;6.806;2023-10-09T12:04:58;24.45;;;12.10;;
16579;SDS011;8402;51.466;6.806;2023-10-09T12:07:28;23.50;;;11.45;;
16579;SDS011;8402;51.466;6.806;2023-10-09T12:09:59;17.95;;;11.23;;
16579;SDS011;8402;51.466;6.806;2023-10-09T12:12:31;18.70;;;10.90;;
16579;SDS011;8402;51.466;6.806;2023-10-09T12:15:01;20.20;;;11.15;;
16579;SDS011;8402;51.466;6.806;2023-10-09T12:17:34;23.50;;;10.93;;
16579;SDS011;8402;51.466;6.806;2023-10-09T12:20:11;21.45;;;10.98;;
16579;SDS011;8402;51.466;6.806;2023-10-09T12:22:57;20.98;;;11.07;;
16579;SDS011;8402;51.466;6.806;2023-10-09T12:25:27;19.40;;;10.55;;
16579;SDS011;8402;51.466;6.806;2023-10-09T12:27:58;22.30;;;10.75;;
16579;SDS011;8402;51.466;6.806;2023-10-09T12:30:28;19.58;;;11.55;;
16579;SDS011;8402;51.466;6.806;2023-10-09T12:33:09;23.75;;;11.73;;
16579;SDS011;8402;51.466;6.806;2023-10-09T12:35:42;19.95;;;11.07;;
16579;SDS011;8402;51.466;6.806;2023-10-09T12:38:12;18.05;;;10.68;;
16579;SDS011;8402;51.466;6.806;2023-10-09T12:40:45;22.50;;;11.38;;
16579;SDS011;8402;51.466;6.806;2023-10-09T12:43:20;22.00;;;10.40;;
16579;SDS011;8402;51.466;6.806;2023-10-09T12:45:50;21.52;;;11.25;;
16579;SDS011;8402;51.466;6.806;2023-10-09T12:48:28;21.63;;;10.65;;
16579;SDS011;8402;51.466;6.806;2023-10-09T12:50:58;21.98;;;11.10;;
16579;SDS011;8402;51.466;6.806;2023-10-09T12:53:32;26.00;;;12.13;;
16579;SDS011;8402;51.466;6.806;2023-10-09T12:56:08;23.45;;;12.38;;
16579;SDS011;8402;51.466;6.806;2023-10-09T12:58:38;22.50;;;12.48;;
16579;SDS011;8402;51.466;6.806;2023-10-09T13:01:20;25.35;;;12.50;;
16579;SDS011;8402;51.466;6.806;2023-10-09T13:03:52;23.45;;;12.25;;
16579;SDS011;8402;51.466;6.806;2023-10-09T13:06:23;55.03;;;25.33;;
16579;SDS011;8402;51.466;6.806;2023-10-09T13:08:53;26.67;;;14.48;;
16579;SDS011;8402;51.466;6.806;2023-10-09T13:11:29;47.00;;;22.23;;
16579;SDS011;8402;51.466;6.806;2023-10-09T13:14:03;26.10;;;14.55;;
16579;SDS011;8402;51.466;6.806;2023-10-09T13:16:38;24.35;;;13.05;;
16579;SDS011;8402;51.466;6.806;2023-10-09T13:19:11;26.17;;;12.25;;
16579;SDS011;8402;51.466;6.806;2023-10-09T13:21:41;26.20;;;12.57;;
16579;SDS011;8402;51.466;6.806;2023-10-09T13:24:11;19.50;;;11.85;;
16579;SDS011;8402;51.466;6.806;2023-10-09T13:26:42;28.20;;;12.93;;
16579;SDS011;8402;51.466;6.806;2023-10-09T13:29:18;25.13;;;11.80;;
16579;SDS011;8402;51.466;6.806;2023-10-09T13:31:49;18.17;;;11.65;;
16579;SDS011;8402;51.466;6.806;2023-10-09T13:34:27;20.15;;;12.35;;
16579;SDS011;8402;51.466;6.806;2023-10-09T13:36:59;19.00;;;11.80;;
16579;SDS011;8402;51.466;6.806;2023-10-09T13:39:38;21.98;;;11.40;;
16579;SDS011;8402;51.466;6.806;2023-10-09T13:42:19;21.45;;;11.75;;
16579;SDS011;8402;51.466;6.806;2023-10-09T13:44:51;22.52;;;12.73;;
16579;SDS011;8402;51.466;6.806;2023-10-09T13:47:22;23.58;;;13.35;;
16579;SDS011;8402;51.466;6.806;2023-10-09T13:50:01;21.13;;;13.07;;
16579;SDS011;8402;51.466;6.806;2023-10-09T13:52:31;21.35;;;11.63;;
16579;SDS011;8402;51.466;6.806;2023-10-09T13:55:06;25.23;;;12.95;;
16579;SDS011;8402;51.466;6.806;2023-10-09T13:57:44;28.15;;;14.80;;
16579;SDS011;8402;51.466;6.806;2023-10-09T14:00:14;23.38;;;13.80;;
16579;SDS011;8402;51.466;6.806;2023-10-09T14:03:00;24.55;;;13.63;;
16579;SDS011;8402;51.466;6.806;2023-10-09T14:05:41;25.73;;;14.77;;
16579;SDS011;8402;51.466;6.806;2023-10-09T14:08:21;22.17;;;13.25;;
16579;SDS011;8402;51.466;6.806;2023-10-09T14:10:52;22.35;;;11.68;;
16579;SDS011;8402;51.466;6.806;2023-10-09T14:13:22;23.60;;;13.38;;
16579;SDS011;8402;51.466;6.806;2023-10-09T14:15:56;22.65;;;13.20;;
16579;SDS011;8402;51.466;6.806;2023-10-09T14:18:28;24.30;;;13.77;;
16579;SDS011;8402;51.466;6.806;2023-10-09T14:21:04;30.42;;;13.85;;
16579;SDS011;8402;51.466;6.806;2023-10-09T14:23:42;25.17;;;12.40;;
16579;SDS011;8402;51.466;6.806;2023-10-09T14:26:15;24.65;;;13.50;;
16579;SDS011;8402;51.466;6.806;2023-10-09T14:28:45;26.05;;;14.00;;
16579;SDS011;8402;51.466;6.806;2023-10-09T14:31:15;28.13;;;13.15;;
16579;SDS011;8402;51.466;6.806;2023-10-09T14:33:47;23.48;;;13.27;;
16579;SDS011;8402;51.466;6.806;2023-10-09T14:36:21;28.65;;;14.48;;
16579;SDS011;8402;51.466;6.806;2023-10-09T14:39:00;25.63;;;14.70;;
16579;SDS011;8402;51.466;6.806;2023-10-09T14:41:31;22.98;;;13.68;;
16579;SDS011;8402;51.466;6.806;2023-10-09T14:44:02;28.17;;;14.38;;
16579;SDS011;8402;51.466;6.806;2023-10-09T14:46:32;25.35;;;14.65;;
16579;SDS011;8402;51.466;6.806;2023-10-09T14:49:02;24.80;;;13.88;;
16579;SDS011;8402;51.466;6.806;2023-10-09T14:51:35;25.08;;;14.05;;
16579;SDS011;8402;51.466;6.806;2023-10-09T14:54:05;24.35;;;15.00;;
16579;SDS011;8402;51.466;6.806;2023-10-09T14:56:36;26.90;;;15.23;;
16579;SDS011;8402;51.466;6.806;2023-10-09T14:59:07;25.50;;;13.75;;
16579;SDS011;8402;51.466;6.806;2023-10-09T15:01:38;30.52;;;14.65;;
16579;SDS011;8402;51.466;6.806;2023-10-09T15:04:09;25.25;;;14.65;;
16579;SDS011;8402;51.466;6.806;2023-10-09T15:06:44;27.70;;;14.25;;
16579;SDS011;8402;51.466;6.806;2023-10-09T15:09:15;20.08;;;11.65;;
16579;SDS011;8402;51.466;6.806;2023-10-09T15:11:54;28.98;;;13.32;;
16579;SDS011;8402;51.466;6.806;2023-10-09T15:14:27;24.58;;;13.70;;
16579;SDS011;8402;51.466;6.806;2023-10-09T15:16:57;24.90;;;14.18;;
16579;SDS011;8402;51.466;6.806;2023-10-09T15:19:27;23.25;;;13.07;;
16579;SDS011;8402;51.466;6.806;2023-10-09T15:22:01;31.15;;;15.10;;
16579;SDS011;8402;51.466;6.806;2023-10-09T15:24:35;21.17;;;13.45;;
16579;SDS011;8402;51.466;6.806;2023-10-09T15:27:07;27.58;;;14.10;;
16579;SDS011;8402;51.466;6.806;2023-10-09T15:29:37;25.20;;;13.75;;
16579;SDS011;8402;51.466;6.806;2023-10-09T15:32:10;27.23;;;15.05;;
16579;SDS011;8402;51.466;6.806;2023-10-09T15:34:49;30.15;;;14.80;;
16579;SDS011;8402;51.466;6.806;2023-10-09T15:37:28;26.00;;;14.27;;
16579;SDS011;8402;51.466;6.806;2023-10-09T15:39:58;28.33;;;14.40;;
16579;SDS011;8402;51.466;6.806;2023-10-09T15:42:31;24.77;;;13.68;;
16579;SDS011;8402;51.466;6.806;2023-10-09T15:45:03;27.02;;;13.73;;
16579;SDS011;8402;51.466;6.806;2023-10-09T15:47:34;33.55;;;14.80;;
16579;SDS011;8402;51.466;6.806;2023-10-09T15:50:04;28.15;;;14.63;;